EKVJ/STA METAR and TAF weather

Enter ICAO airport designator
Station Type Date Time Source
EKVJ METAR 2018/10/19 13:50 UTC NOAA

EKVJ 191350Z 27005KT 9999 BKN030 12/07 Q1025


Station Type Date Time Source
EKVJ Decoded METAR 2018/10/19 13:50 UTC NOAA

Stauning Lufthavn, Denmark (EKVJ) 56-00N 008-21E 5M
Oct 19, 2018 - 09:50 AM EDT / 2018.10.19 1350 UTC
Wind: from the W (270 degrees) at 6 MPH (5 KT):0
Visibility: greater than 7 mile(s):0
Sky conditions: mostly cloudy
Temperature: 53 F (12 C)
Dew Point: 44 F (7 C)
Relative Humidity: 71%
Pressure (altimeter): 30.27 in. Hg (1025 hPa)
ob: EKVJ 191350Z 27005KT 9999 BKN030 12/07 Q1025
cycle: 14

Station Type Date Time Source
EKVJ TAF UTC NOAA

Error!


Example: see airport list